sensor_id;sensor_type;location;lat;lon;timestamp;pressure;altitude;pressure_sealevel;temperature
63113;BMP280;49206;48.020;21.378;2022-12-10T00:00:25;99021.47;;;6.46
63113;BMP280;49206;48.020;21.378;2022-12-10T00:01:30;99014.59;;;6.54
63113;BMP280;49206;48.020;21.378;2022-12-10T00:02:32;99025.06;;;6.54
63113;BMP280;49206;48.020;21.378;2022-12-10T00:03:36;99026.00;;;6.61
63113;BMP280;49206;48.020;21.378;2022-12-10T00:04:38;99017.63;;;6.56
63113;BMP280;49206;48.020;21.378;2022-12-10T00:05:45;99019.66;;;6.62
63113;BMP280;49206;48.020;21.378;2022-12-10T00:06:47;99019.31;;;6.64
63113;BMP280;49206;48.020;21.378;2022-12-10T00:07:50;99008.16;;;6.67
63113;BMP280;49206;48.020;21.378;2022-12-10T00:08:53;99012.19;;;6.64
63113;BMP280;49206;48.020;21.378;2022-12-10T00:09:55;99010.13;;;6.70
63113;BMP280;49206;48.020;21.378;2022-12-10T00:10:57;99011.13;;;6.65
63113;BMP280;49206;48.020;21.378;2022-12-10T00:12:00;99004.69;;;6.63
63113;BMP280;49206;48.020;21.378;2022-12-10T00:13:02;99000.53;;;6.62
63113;BMP280;49206;48.020;21.378;2022-12-10T00:14:05;98999.88;;;6.65
63113;BMP280;49206;48.020;21.378;2022-12-10T00:15:09;99004.69;;;6.63
63113;BMP280;49206;48.020;21.378;2022-12-10T00:16:15;99003.91;;;6.62
63113;BMP280;49206;48.020;21.378;2022-12-10T00:17:18;98997.75;;;6.55
63113;BMP280;49206;48.020;21.378;2022-12-10T00:18:20;98992.31;;;6.63
63113;BMP280;49206;48.020;21.378;2022-12-10T00:19:23;98995.78;;;6.52
63113;BMP280;49206;48.020;21.378;2022-12-10T00:20:25;98999.81;;;6.49
63113;BMP280;49206;48.020;21.378;2022-12-10T00:21:30;98992.41;;;6.51
63113;BMP280;49206;48.020;21.378;2022-12-10T00:22:34;98988.78;;;6.56
63113;BMP280;49206;48.020;21.378;2022-12-10T00:23:37;98990.03;;;6.62
63113;BMP280;49206;48.020;21.378;2022-12-10T00:24:40;98988.50;;;6.61
63113;BMP280;49206;48.020;21.378;2022-12-10T00:25:42;98990.47;;;6.64
63113;BMP280;49206;48.020;21.378;2022-12-10T00:26:44;98990.31;;;6.57
63113;BMP280;49206;48.020;21.378;2022-12-10T00:27:48;99002.06;;;6.63
63113;BMP280;49206;48.020;21.378;2022-12-10T00:28:52;98996.31;;;6.57
63113;BMP280;49206;48.020;21.378;2022-12-10T00:29:54;99002.75;;;6.60
63113;BMP280;49206;48.020;21.378;2022-12-10T00:31:03;98994.44;;;6.58
63113;BMP280;49206;48.020;21.378;2022-12-10T00:32:05;98996.22;;;6.54
63113;BMP280;49206;48.020;21.378;2022-12-10T00:33:08;99003.41;;;6.57
63113;BMP280;49206;48.020;21.378;2022-12-10T00:34:11;98997.06;;;6.58
63113;BMP280;49206;48.020;21.378;2022-12-10T00:35:14;98996.56;;;6.52
63113;BMP280;49206;48.020;21.378;2022-12-10T00:36:22;98994.03;;;6.56
63113;BMP280;49206;48.020;21.378;2022-12-10T00:37:26;98994.53;;;6.61
63113;BMP280;49206;48.020;21.378;2022-12-10T00:38:29;98998.00;;;6.65
63113;BMP280;49206;48.020;21.378;2022-12-10T00:39:31;98999.53;;;6.66
63113;BMP280;49206;48.020;21.378;2022-12-10T00:40:34;98994.44;;;6.58
63113;BMP280;49206;48.020;21.378;2022-12-10T00:41:36;98992.91;;;6.57
63113;BMP280;49206;48.020;21.378;2022-12-10T00:42:38;99000.78;;;6.57
63113;BMP280;49206;48.020;21.378;2022-12-10T00:43:41;98998.84;;;6.69
63113;BMP280;49206;48.020;21.378;2022-12-10T00:44:45;98997.78;;;6.86
63113;BMP280;49206;48.020;21.378;2022-12-10T00:45:47;99002.59;;;6.99
63113;BMP280;49206;48.020;21.378;2022-12-10T00:46:50;98996.00;;;7.05
63113;BMP280;49206;48.020;21.378;2022-12-10T00:47:52;99009.03;;;7.02
63113;BMP280;49206;48.020;21.378;2022-12-10T00:48:55;98997.88;;;7.05
63113;BMP280;49206;48.020;21.378;2022-12-10T00:49:57;98994.97;;;7.10
63113;BMP280;49206;48.020;21.378;2022-12-10T00:51:06;98994.97;;;7.25
63113;BMP280;49206;48.020;21.378;2022-12-10T00:52:09;98990.97;;;7.31
63113;BMP280;49206;48.020;21.378;2022-12-10T00:53:11;99000.38;;;7.32
63113;BMP280;49206;48.020;21.378;2022-12-10T00:54:14;99000.19;;;7.41
63113;BMP280;49206;48.020;21.378;2022-12-10T00:55:16;98995.75;;;7.45
63113;BMP280;49206;48.020;21.378;2022-12-10T00:56:25;98986.84;;;7.49
63113;BMP280;49206;48.020;21.378;2022-12-10T00:57:28;98985.72;;;7.66
63113;BMP280;49206;48.020;21.378;2022-12-10T00:58:32;98986.53;;;7.70
63113;BMP280;49206;48.020;21.378;2022-12-10T00:59:35;98988.28;;;7.81
63113;BMP280;49206;48.020;21.378;2022-12-10T01:00:37;98989.88;;;8.05
63113;BMP280;49206;48.020;21.378;2022-12-10T01:01:41;98983.75;;;8.19
63113;BMP280;49206;48.020;21.378;2022-12-10T01:02:44;98989.72;;;8.17
63113;BMP280;49206;48.020;21.378;2022-12-10T01:03:48;98991.38;;;8.24
63113;BMP280;49206;48.020;21.378;2022-12-10T01:04:52;98992.56;;;8.27
63113;BMP280;49206;48.020;21.378;2022-12-10T01:05:55;98993.03;;;8.32
63113;BMP280;49206;48.020;21.378;2022-12-10T01:06:58;98993.22;;;8.43
63113;BMP280;49206;48.020;21.378;2022-12-10T01:08:03;98986.16;;;8.47
63113;BMP280;49206;48.020;21.378;2022-12-10T01:09:07;98986.94;;;8.51
63113;BMP280;49206;48.020;21.378;2022-12-10T01:10:09;98998.59;;;8.50
63113;BMP280;49206;48.020;21.378;2022-12-10T01:11:14;99005.09;;;8.56
63113;BMP280;49206;48.020;21.378;2022-12-10T01:12:17;99001.75;;;8.59
63113;BMP280;49206;48.020;21.378;2022-12-10T01:13:19;99006.38;;;8.65
63113;BMP280;49206;48.020;21.378;2022-12-10T01:14:25;99001.91;;;8.66
63113;BMP280;49206;48.020;21.378;2022-12-10T01:15:28;99003.41;;;8.67
63113;BMP280;49206;48.020;21.378;2022-12-10T01:16:31;99004.69;;;8.76
63113;BMP280;49206;48.020;21.378;2022-12-10T01:17:34;99009.41;;;8.67
63113;BMP280;49206;48.020;21.378;2022-12-10T01:18:37;99013.63;;;8.72
63113;BMP280;49206;48.020;21.378;2022-12-10T01:19:40;99008.38;;;8.72
63113;BMP280;49206;48.020;21.378;2022-12-10T01:20:43;99004.88;;;8.64
63113;BMP280;49206;48.020;21.378;2022-12-10T01:21:45;99013.50;;;8.65
63113;BMP280;49206;48.020;21.378;2022-12-10T01:22:47;99014.28;;;8.65
63113;BMP280;49206;48.020;21.378;2022-12-10T01:23:51;99010.34;;;8.78
63113;BMP280;49206;48.020;21.378;2022-12-10T01:24:53;99011.34;;;8.70
63113;BMP280;49206;48.020;21.378;2022-12-10T01:25:59;99018.13;;;8.71
63113;BMP280;49206;48.020;21.378;2022-12-10T01:27:02;99015.63;;;8.78
63113;BMP280;49206;48.020;21.378;2022-12-10T01:28:05;99015.50;;;8.71
63113;BMP280;49206;48.020;21.378;2022-12-10T01:29:07;99020.13;;;8.78
63113;BMP280;49206;48.020;21.378;2022-12-10T01:30:10;99017.38;;;8.71
63113;BMP280;49206;48.020;21.378;2022-12-10T01:31:15;99014.91;;;8.81
63113;BMP280;49206;48.020;21.378;2022-12-10T01:32:19;99022.03;;;8.77
63113;BMP280;49206;48.020;21.378;2022-12-10T01:33:21;99016.31;;;8.75
63113;BMP280;49206;48.020;21.378;2022-12-10T01:34:26;99014.88;;;8.78
63113;BMP280;49206;48.020;21.378;2022-12-10T01:35:30;99019.75;;;8.79
63113;BMP280;49206;48.020;21.378;2022-12-10T01:36:36;99009.13;;;8.72
63113;BMP280;49206;48.020;21.378;2022-12-10T01:37:39;99004.28;;;8.74
63113;BMP280;49206;48.020;21.378;2022-12-10T01:38:41;99007.41;;;8.61
63113;BMP280;49206;48.020;21.378;2022-12-10T01:39:44;99005.78;;;8.53
63113;BMP280;49206;48.020;21.378;2022-12-10T01:40:46;99006.47;;;8.50
63113;BMP280;49206;48.020;21.378;2022-12-10T01:41:58;99000.19;;;8.54
63113;BMP280;49206;48.020;21.378;2022-12-10T01:43:01;98995.63;;;8.51
63113;BMP280;49206;48.020;21.378;2022-12-10T01:45:12;98999.41;;;8.54
63113;BMP280;49206;48.020;21.378;2022-12-10T01:46:15;98997.56;;;8.54
63113;BMP280;49206;48.020;21.378;2022-12-10T01:47:18;98992.94;;;8.48
63113;BMP280;49206;48.020;21.378;2022-12-10T01:48:21;98997.78;;;8.46
63113;BMP280;49206;48.020;21.378;2022-12-10T01:49:27;98991.78;;;8.45
63113;BMP280;49206;48.020;21.378;2022-12-10T01:50:33;98996.44;;;8.55
63113;BMP280;49206;48.020;21.378;2022-12-10T01:51:38;98998.59;;;8.50
63113;BMP280;49206;48.020;21.378;2022-12-10T01:52:40;98994.34;;;8.64
63113;BMP280;49206;48.020;21.378;2022-12-10T01:53:44;98996.78;;;8.54
63113;BMP280;49206;48.020;21.378;2022-12-10T01:54:48;99000.06;;;8.47
63113;BMP280;49206;48.020;21.378;2022-12-10T01:55:50;99002.81;;;8.54
63113;BMP280;49206;48.020;21.378;2022-12-10T01:57:04;98997.78;;;8.46
63113;BMP280;49206;48.020;21.378;2022-12-10T01:58:08;99001.53;;;8.45
63113;BMP280;49206;48.020;21.378;2022-12-10T01:59:11;99000.44;;;8.49
63113;BMP280;49206;48.020;21.378;2022-12-10T02:00:16;99006.13;;;8.51
63113;BMP280;49206;48.020;21.378;2022-12-10T02:01:36;99009.47;;;8.48
63113;BMP280;49206;48.020;21.378;2022-12-10T02:02:53;99001.53;;;8.45
63113;BMP280;49206;48.020;21.378;2022-12-10T02:05:37;99012.28;;;8.36
63113;BMP280;49206;48.020;21.378;2022-12-10T02:08:02;99011.06;;;8.53
63113;BMP280;49206;48.020;21.378;2022-12-10T02:09:16;99011.41;;;8.51
63113;BMP280;49206;48.020;21.378;2022-12-10T02:10:51;99015.34;;;8.42
63113;BMP280;49206;48.020;21.378;2022-12-10T02:14:43;99016.81;;;8.39
63113;BMP280;49206;48.020;21.378;2022-12-10T02:17:01;99011.25;;;8.44
63113;BMP280;49206;48.020;21.378;2022-12-10T02:21:30;99010.44;;;8.40
63113;BMP280;49206;48.020;21.378;2022-12-10T02:22:39;99013.56;;;8.46
63113;BMP280;49206;48.020;21.378;2022-12-10T02:23:46;99011.25;;;8.44
63113;BMP280;49206;48.020;21.378;2022-12-10T02:24:51;99013.06;;;8.40
63113;BMP280;49206;48.020;21.378;2022-12-10T02:25:59;99007.81;;;8.40
63113;BMP280;49206;48.020;21.378;2022-12-10T02:27:19;99009.88;;;8.50
63113;BMP280;49206;48.020;21.378;2022-12-10T02:29:19;99003.91;;;8.53
63113;BMP280;49206;48.020;21.378;2022-12-10T02:30:14;99010.97;;;8.49
63113;BMP280;49206;48.020;21.378;2022-12-10T02:31:21;99004.22;;;8.48
63113;BMP280;49206;48.020;21.378;2022-12-10T02:32:29;99000.78;;;8.67
63113;BMP280;49206;48.020;21.378;2022-12-10T02:33:39;99002.88;;;8.58
63113;BMP280;49206;48.020;21.378;2022-12-10T02:34:50;98995.03;;;8.61
63113;BMP280;49206;48.020;21.378;2022-12-10T02:35:53;99003.09;;;8.72
63113;BMP280;49206;48.020;21.378;2022-12-10T02:36:57;98996.31;;;8.71
63113;BMP280;49206;48.020;21.378;2022-12-10T02:38:14;99002.41;;;8.75
63113;BMP280;49206;48.020;21.378;2022-12-10T02:39:23;99006.03;;;8.67
63113;BMP280;49206;48.020;21.378;2022-12-10T02:40:32;99003.78;;;8.69
63113;BMP280;49206;48.020;21.378;2022-12-10T02:41:46;99000.53;;;8.75
63113;BMP280;49206;48.020;21.378;2022-12-10T02:42:51;98999.28;;;8.69
63113;BMP280;49206;48.020;21.378;2022-12-10T02:43:57;98995.53;;;8.67
63113;BMP280;49206;48.020;21.378;2022-12-10T02:45:01;98994.16;;;8.76
63113;BMP280;49206;48.020;21.378;2022-12-10T02:46:05;98994.41;;;8.68
63113;BMP280;49206;48.020;21.378;2022-12-10T02:47:11;98990.28;;;8.70
63113;BMP280;49206;48.020;21.378;2022-12-10T02:48:18;98998.50;;;8.65
63113;BMP280;49206;48.020;21.378;2022-12-10T02:49:21;98997.25;;;8.59
63113;BMP280;49206;48.020;21.378;2022-12-10T02:50:25;99000.03;;;8.70
63113;BMP280;49206;48.020;21.378;2022-12-10T02:51:28;99006.91;;;8.74
63113;BMP280;49206;48.020;21.378;2022-12-10T02:52:31;99008.03;;;8.73
63113;BMP280;49206;48.020;21.378;2022-12-10T02:53:33;99007.31;;;8.76
63113;BMP280;49206;48.020;21.378;2022-12-10T02:55:58;99002.13;;;8.80
63113;BMP280;49206;48.020;21.378;2022-12-10T03:01:42;99008.09;;;8.77
63113;BMP280;49206;48.020;21.378;2022-12-10T03:04:19;99010.00;;;8.80
63113;BMP280;49206;48.020;21.378;2022-12-10T03:07:19;98999.78;;;8.75
63113;BMP280;49206;48.020;21.378;2022-12-10T03:08:27;98999.28;;;8.66
63113;BMP280;49206;48.020;21.378;2022-12-10T03:09:36;99001.59;;;8.71
63113;BMP280;49206;48.020;21.378;2022-12-10T03:12:02;99012.47;;;8.69
63113;BMP280;49206;48.020;21.378;2022-12-10T03:13:11;99004.88;;;8.64
63113;BMP280;49206;48.020;21.378;2022-12-10T03:14:20;99001.47;;;8.64
63113;BMP280;49206;48.020;21.378;2022-12-10T03:15:24;99006.97;;;8.78
63113;BMP280;49206;48.020;21.378;2022-12-10T03:16:53;99002.06;;;8.76
63113;BMP280;49206;48.020;21.378;2022-12-10T03:17:57;98992.91;;;8.70
63113;BMP280;49206;48.020;21.378;2022-12-10T03:19:05;98989.47;;;8.89
63113;BMP280;49206;48.020;21.378;2022-12-10T03:20:12;98997.31;;;8.85
63113;BMP280;49206;48.020;21.378;2022-12-10T03:21:16;98989.88;;;8.91
63113;BMP280;49206;48.020;21.378;2022-12-10T03:22:21;98989.00;;;8.83
63113;BMP280;49206;48.020;21.378;2022-12-10T03:23:23;98994.63;;;8.82
63113;BMP280;49206;48.020;21.378;2022-12-10T03:24:27;99001.41;;;8.83
63113;BMP280;49206;48.020;21.378;2022-12-10T03:25:30;98996.59;;;8.88
63113;BMP280;49206;48.020;21.378;2022-12-10T03:26:34;98999.53;;;8.83
63113;BMP280;49206;48.020;21.378;2022-12-10T03:27:39;98997.38;;;8.89
63113;BMP280;49206;48.020;21.378;2022-12-10T03:28:49;99000.75;;;8.89
63113;BMP280;49206;48.020;21.378;2022-12-10T03:29:54;99010.06;;;8.83
63113;BMP280;49206;48.020;21.378;2022-12-10T03:30:58;99004.03;;;8.83
63113;BMP280;49206;48.020;21.378;2022-12-10T03:32:02;99004.50;;;8.88
63113;BMP280;49206;48.020;21.378;2022-12-10T03:33:05;99006.25;;;8.81
63113;BMP280;49206;48.020;21.378;2022-12-10T03:34:09;99004.34;;;8.78
63113;BMP280;49206;48.020;21.378;2022-12-10T03:35:13;99012.25;;;8.78
63113;BMP280;49206;48.020;21.378;2022-12-10T03:36:16;99004.75;;;8.80
63113;BMP280;49206;48.020;21.378;2022-12-10T03:37:21;99012.25;;;8.81
63113;BMP280;49206;48.020;21.378;2022-12-10T03:38:27;99016.31;;;8.75
63113;BMP280;49206;48.020;21.378;2022-12-10T03:39:30;99011.19;;;8.82
63113;BMP280;49206;48.020;21.378;2022-12-10T03:40:32;99013.88;;;8.86
63113;BMP280;49206;48.020;21.378;2022-12-10T03:41:35;99013.88;;;8.86
63113;BMP280;49206;48.020;21.378;2022-12-10T03:42:38;99007.44;;;8.83
63113;BMP280;49206;48.020;21.378;2022-12-10T03:43:52;99014.28;;;8.88
63113;BMP280;49206;48.020;21.378;2022-12-10T03:44:54;99020.44;;;8.95
63113;BMP280;49206;48.020;21.378;2022-12-10T03:45:56;99022.63;;;8.93
63113;BMP280;49206;48.020;21.378;2022-12-10T03:47:00;99020.47;;;8.99
63113;BMP280;49206;48.020;21.378;2022-12-10T03:48:03;99017.66;;;8.88
63113;BMP280;49206;48.020;21.378;2022-12-10T03:49:05;99018.03;;;8.87
63113;BMP280;49206;48.020;21.378;2022-12-10T03:50:08;99025.56;;;8.88
63113;BMP280;49206;48.020;21.378;2022-12-10T03:51:12;99020.00;;;8.93
63113;BMP280;49206;48.020;21.378;2022-12-10T03:52:14;99023.06;;;8.95
63113;BMP280;49206;48.020;21.378;2022-12-10T03:53:16;99019.69;;;8.98
63113;BMP280;49206;48.020;21.378;2022-12-10T03:54:19;99016.59;;;8.93
63113;BMP280;49206;48.020;21.378;2022-12-10T03:55:22;99012.09;;;8.93
63113;BMP280;49206;48.020;21.378;2022-12-10T03:56:25;99016.69;;;8.96
63113;BMP280;49206;48.020;21.378;2022-12-10T03:57:28;99026.38;;;8.92
63113;BMP280;49206;48.020;21.378;2022-12-10T03:58:31;99022.97;;;8.92
63113;BMP280;49206;48.020;21.378;2022-12-10T03:59:33;99019.59;;;8.91
63113;BMP280;49206;48.020;21.378;2022-12-10T04:00:36;99017.66;;;8.88
63113;BMP280;49206;48.020;21.378;2022-12-10T04:01:38;99024.06;;;8.87
63113;BMP280;49206;48.020;21.378;2022-12-10T04:02:41;99015.38;;;8.87
63113;BMP280;49206;48.020;21.378;2022-12-10T04:03:44;99019.13;;;8.86
63113;BMP280;49206;48.020;21.378;2022-12-10T04:04:46;99015.03;;;8.88
63113;BMP280;49206;48.020;21.378;2022-12-10T04:05:49;99016.03;;;9.03
63113;BMP280;49206;48.020;21.378;2022-12-10T04:06:51;99017.03;;;8.95
63113;BMP280;49206;48.020;21.378;2022-12-10T04:07:54;99023.31;;;8.90
63113;BMP280;49206;48.020;21.378;2022-12-10T04:08:57;99019.75;;;9.02
63113;BMP280;49206;48.020;21.378;2022-12-10T04:10:00;99029.59;;;9.05
63113;BMP280;49206;48.020;21.378;2022-12-10T04:11:07;99021.44;;;9.13
63113;BMP280;49206;48.020;21.378;2022-12-10T04:12:13;99024.78;;;9.10
63113;BMP280;49206;48.020;21.378;2022-12-10T04:13:15;99020.19;;;9.07
63113;BMP280;49206;48.020;21.378;2022-12-10T04:14:36;99025.72;;;8.99
63113;BMP280;49206;48.020;21.378;2022-12-10T04:15:57;99030.28;;;9.02
63113;BMP280;49206;48.020;21.378;2022-12-10T04:17:18;99022.38;;;9.02
63113;BMP280;49206;48.020;21.378;2022-12-10T04:18:21;99019.09;;;9.08
63113;BMP280;49206;48.020;21.378;2022-12-10T04:19:24;99030.78;;;9.11
63113;BMP280;49206;48.020;21.378;2022-12-10T04:20:26;99021.38;;;9.10
63113;BMP280;49206;48.020;21.378;2022-12-10T04:21:47;99022.91;;;9.11
63113;BMP280;49206;48.020;21.378;2022-12-10T04:23:08;99027.63;;;9.02
63113;BMP280;49206;48.020;21.378;2022-12-10T04:24:32;99032.84;;;8.98
63113;BMP280;49206;48.020;21.378;2022-12-10T04:26:13;99025.53;;;9.11
63113;BMP280;49206;48.020;21.378;2022-12-10T04:27:37;99028.53;;;9.09
63113;BMP280;49206;48.020;21.378;2022-12-10T04:28:40;99026.41;;;9.18
63113;BMP280;49206;48.020;21.378;2022-12-10T04:29:42;99028.28;;;9.18
63113;BMP280;49206;48.020;21.378;2022-12-10T04:30:45;99026.31;;;9.11
63113;BMP280;49206;48.020;21.378;2022-12-10T04:31:47;99020.97;;;9.08
63113;BMP280;49206;48.020;21.378;2022-12-10T04:32:50;99026.31;;;9.11
63113;BMP280;49206;48.020;21.378;2022-12-10T04:33:52;99027.75;;;9.09
63113;BMP280;49206;48.020;21.378;2022-12-10T04:34:55;99018.75;;;9.10
63113;BMP280;49206;48.020;21.378;2022-12-10T04:35:57;99026.97;;;9.08
63113;BMP280;49206;48.020;21.378;2022-12-10T04:37:00;99016.13;;;9.10
63113;BMP280;49206;48.020;21.378;2022-12-10T04:38:03;99029.03;;;9.18
63113;BMP280;49206;48.020;21.378;2022-12-10T04:39:05;99026.97;;;9.08
63113;BMP280;49206;48.020;21.378;2022-12-10T04:40:08;99022.81;;;9.04
63113;BMP280;49206;48.020;21.378;2022-12-10T04:41:11;99025.13;;;9.09
63113;BMP280;49206;48.020;21.378;2022-12-10T04:42:18;99022.16;;;9.10
63113;BMP280;49206;48.020;21.378;2022-12-10T04:43:21;99021.38;;;9.10
63113;BMP280;49206;48.020;21.378;2022-12-10T04:44:23;99025.22;;;9.16
63113;BMP280;49206;48.020;21.378;2022-12-10T04:45:26;99019.09;;;9.08
63113;BMP280;49206;48.020;21.378;2022-12-10T04:46:28;99021.44;;;9.13
63113;BMP280;49206;48.020;21.378;2022-12-10T04:47:31;99016.16;;;9.13
63113;BMP280;49206;48.020;21.378;2022-12-10T04:48:34;99017.22;;;9.09
63113;BMP280;49206;48.020;21.378;2022-12-10T04:49:37;99016.16;;;9.13
63113;BMP280;49206;48.020;21.378;2022-12-10T04:50:40;99016.88;;;9.10
63113;BMP280;49206;48.020;21.378;2022-12-10T04:51:43;99025.47;;;9.07
63113;BMP280;49206;48.020;21.378;2022-12-10T04:52:46;99025.09;;;9.05
63113;BMP280;49206;48.020;21.378;2022-12-10T04:53:48;99019.91;;;9.12
63113;BMP280;49206;48.020;21.378;2022-12-10T04:54:51;99015.72;;;9.08
63113;BMP280;49206;48.020;21.378;2022-12-10T04:55:53;99017.31;;;9.16
63113;BMP280;49206;48.020;21.378;2022-12-10T04:56:56;99019.59;;;9.17
63113;BMP280;49206;48.020;21.378;2022-12-10T04:57:58;99018.97;;;9.24
63113;BMP280;49206;48.020;21.378;2022-12-10T04:59:02;99020.38;;;9.18
63113;BMP280;49206;48.020;21.378;2022-12-10T05:00:05;99024.06;;;9.13
63113;BMP280;49206;48.020;21.378;2022-12-10T05:01:09;99018.84;;;9.17
63113;BMP280;49206;48.020;21.378;2022-12-10T05:02:12;99022.97;;;9.14
63113;BMP280;49206;48.020;21.378;2022-12-10T05:03:15;99019.91;;;9.12
63113;BMP280;49206;48.020;21.378;2022-12-10T05:04:18;99024.78;;;9.10
63113;BMP280;49206;48.020;21.378;2022-12-10T05:05:21;99017.81;;;9.25
63113;BMP280;49206;48.020;21.378;2022-12-10T05:06:23;99017.09;;;9.24
63113;BMP280;49206;48.020;21.378;2022-12-10T05:07:26;99016.28;;;9.20
63113;BMP280;49206;48.020;21.378;2022-12-10T05:08:28;99017.31;;;9.16
63113;BMP280;49206;48.020;21.378;2022-12-10T05:09:31;99007.81;;;9.08
63113;BMP280;49206;48.020;21.378;2022-12-10T05:10:34;99013.25;;;9.18
63113;BMP280;49206;48.020;21.378;2022-12-10T05:11:37;99009.72;;;9.11
63113;BMP280;49206;48.020;21.378;2022-12-10T05:12:39;99012.44;;;9.14
63113;BMP280;49206;48.020;21.378;2022-12-10T05:13:42;99006.06;;;9.15
63113;BMP280;49206;48.020;21.378;2022-12-10T05:14:45;99007.75;;;9.04
63113;BMP280;49206;48.020;21.378;2022-12-10T05:15:48;99010.38;;;9.04
63113;BMP280;49206;48.020;21.378;2022-12-10T05:16:51;99013.66;;;9.20
63113;BMP280;49206;48.020;21.378;2022-12-10T05:17:54;99017.72;;;9.14
63113;BMP280;49206;48.020;21.378;2022-12-10T05:19:00;99009.84;;;9.18
63113;BMP280;49206;48.020;21.378;2022-12-10T05:20:03;99014.34;;;9.17
63113;BMP280;49206;48.020;21.378;2022-12-10T05:21:10;99015.41;;;9.13
63113;BMP280;49206;48.020;21.378;2022-12-10T05:22:12;99010.00;;;9.02
63113;BMP280;49206;48.020;21.378;2022-12-10T05:23:36;99013.41;;;9.03
63113;BMP280;49206;48.020;21.378;2022-12-10T05:24:39;99015.81;;;9.15
63113;BMP280;49206;48.020;21.378;2022-12-10T05:25:44;99013.81;;;9.08
63113;BMP280;49206;48.020;21.378;2022-12-10T05:26:56;99014.84;;;9.00
63113;BMP280;49206;48.020;21.378;2022-12-10T05:27:59;99024.28;;;9.01
63113;BMP280;49206;48.020;21.378;2022-12-10T05:29:01;99021.97;;;9.00
63113;BMP280;49206;48.020;21.378;2022-12-10T05:30:04;99028.00;;;9.00
63113;BMP280;49206;48.020;21.378;2022-12-10T05:31:22;99026.56;;;9.03
63113;BMP280;49206;48.020;21.378;2022-12-10T05:32:25;99022.03;;;9.03
63113;BMP280;49206;48.020;21.378;2022-12-10T05:33:29;99026.59;;;9.06
63113;BMP280;49206;48.020;21.378;2022-12-10T05:34:31;99030.13;;;9.17
63113;BMP280;49206;48.020;21.378;2022-12-10T05:35:34;99039.41;;;9.08
63113;BMP280;49206;48.020;21.378;2022-12-10T05:36:36;99038.94;;;9.02
63113;BMP280;49206;48.020;21.378;2022-12-10T05:37:38;99040.53;;;9.07
63113;BMP280;49206;48.020;21.378;2022-12-10T05:38:41;99043.56;;;9.09
63113;BMP280;49206;48.020;21.378;2022-12-10T05:39:44;99042.50;;;9.13
63113;BMP280;49206;48.020;21.378;2022-12-10T05:40:46;99037.22;;;9.13
63113;BMP280;49206;48.020;21.378;2022-12-10T05:41:56;99031.84;;;9.06
63113;BMP280;49206;48.020;21.378;2022-12-10T05:42:58;99035.31;;;9.10
63113;BMP280;49206;48.020;21.378;2022-12-10T05:44:00;99033.44;;;9.11
63113;BMP280;49206;48.020;21.378;2022-12-10T05:45:03;99039.06;;;9.09
63113;BMP280;49206;48.020;21.378;2022-12-10T05:46:10;99041.50;;;9.21
63113;BMP280;49206;48.020;21.378;2022-12-10T05:47:13;99044.06;;;9.18
63113;BMP280;49206;48.020;21.378;2022-12-10T05:48:15;99037.22;;;9.13
63113;BMP280;49206;48.020;21.378;2022-12-10T05:49:18;99041.69;;;9.09
63113;BMP280;49206;48.020;21.378;2022-12-10T05:50:21;99044.91;;;8.99
63113;BMP280;49206;48.020;21.378;2022-12-10T05:51:26;99040.75;;;8.98
63113;BMP280;49206;48.020;21.378;2022-12-10T05:52:29;99042.09;;;9.11
63113;BMP280;49206;48.020;21.378;2022-12-10T05:53:31;99032.75;;;9.14
63113;BMP280;49206;48.020;21.378;2022-12-10T05:54:34;99040.94;;;9.09
63113;BMP280;49206;48.020;21.378;2022-12-10T05:55:37;99045.38;;;9.05
63113;BMP280;49206;48.020;21.378;2022-12-10T05:56:39;99037.94;;;9.10
63113;BMP280;49206;48.020;21.378;2022-12-10T05:57:42;99045.84;;;9.10
63113;BMP280;49206;48.020;21.378;2022-12-10T05:58:46;99051.78;;;9.04
63113;BMP280;49206;48.020;21.378;2022-12-10T05:59:48;99048.78;;;9.05
63113;BMP280;49206;48.020;21.378;2022-12-10T06:00:50;99045.38;;;9.05
63113;BMP280;49206;48.020;21.378;2022-12-10T06:01:53;99047.53;;;8.99
63113;BMP280;49206;48.020;21.378;2022-12-10T06:02:55;99048.38;;;9.03
63113;BMP280;49206;48.020;21.378;2022-12-10T06:03:59;99047.75;;;9.13
63113;BMP280;49206;48.020;21.378;2022-12-10T06:05:02;99047.72;;;9.10
63113;BMP280;49206;48.020;21.378;2022-12-10T06:06:05;99050.78;;;9.12
63113;BMP280;49206;48.020;21.378;2022-12-10T06:07:08;99047.31;;;9.08
63113;BMP280;49206;48.020;21.378;2022-12-10T06:08:12;99038.25;;;9.05
63113;BMP280;49206;48.020;21.378;2022-12-10T06:09:15;99047.97;;;9.01
63113;BMP280;49206;48.020;21.378;2022-12-10T06:10:18;99049.13;;;9.04
63113;BMP280;49206;48.020;21.378;2022-12-10T06:11:21;99061.88;;;9.02
63113;BMP280;49206;48.020;21.378;2022-12-10T06:12:23;99058.06;;;8.99
63113;BMP280;49206;48.020;21.378;2022-12-10T06:13:26;99062.91;;;8.94
63113;BMP280;49206;48.020;21.378;2022-12-10T06:14:28;99057.97;;;8.92
63113;BMP280;49206;48.020;21.378;2022-12-10T06:15:31;99066.22;;;8.91
63113;BMP280;49206;48.020;21.378;2022-12-10T06:16:34;99066.38;;;9.01
63113;BMP280;49206;48.020;21.378;2022-12-10T06:17:37;99066.44;;;9.05
63113;BMP280;49206;48.020;21.378;2022-12-10T06:18:39;99064.81;;;8.97
63113;BMP280;49206;48.020;21.378;2022-12-10T06:19:42;99067.06;;;8.98
63113;BMP280;49206;48.020;21.378;2022-12-10T06:20:45;99071.22;;;8.99
63113;BMP280;49206;48.020;21.378;2022-12-10T06:21:48;99067.84;;;8.99
63113;BMP280;49206;48.020;21.378;2022-12-10T06:22:51;99071.34;;;9.06
63113;BMP280;49206;48.020;21.378;2022-12-10T06:23:53;99072.88;;;9.07
63113;BMP280;49206;48.020;21.378;2022-12-10T06:24:56;99079.50;;;8.98
63113;BMP280;49206;48.020;21.378;2022-12-10T06:25:59;99076.81;;;8.94
63113;BMP280;49206;48.020;21.378;2022-12-10T06:27:05;99081.72;;;8.96
63113;BMP280;49206;48.020;21.378;2022-12-10T06:28:08;99077.66;;;9.02
63113;BMP280;49206;48.020;21.378;2022-12-10T06:29:11;99085.13;;;8.96
63113;BMP280;49206;48.020;21.378;2022-12-10T06:30:14;99088.13;;;8.98
63113;BMP280;49206;48.020;21.378;2022-12-10T06:31:16;99084.50;;;9.06
63113;BMP280;49206;48.020;21.378;2022-12-10T06:32:19;99084.50;;;9.06
63113;BMP280;49206;48.020;21.378;2022-12-10T06:33:21;99090.56;;;9.07
63113;BMP280;49206;48.020;21.378;2022-12-10T06:34:24;99095.88;;;9.10
63113;BMP280;49206;48.020;21.378;2022-12-10T06:35:27;99087.91;;;9.07